createdAt,value
2019-01-29T00:00:36.256Z,0.75
2019-01-29T00:03:06.447Z,0.76
2019-01-29T00:05:34.974Z,0.74
2019-01-29T00:08:03.564Z,0.70
2019-01-29T00:10:32.065Z,0.68
2019-01-29T00:13:00.588Z,0.63
2019-01-29T00:15:29.090Z,0.63
2019-01-29T00:17:57.552Z,0.62
2019-01-29T00:20:25.987Z,0.58
2019-01-29T00:22:54.414Z,0.58
2019-01-29T00:25:22.982Z,0.56
2019-01-29T00:27:51.397Z,0.53
2019-01-29T00:30:19.898Z,0.55
2019-01-29T00:32:48.332Z,0.50
2019-01-29T00:35:16.814Z,0.45
2019-01-29T00:37:45.291Z,0.45
2019-01-29T00:40:16.053Z,0.42
2019-01-29T00:42:44.566Z,0.39
2019-01-29T00:45:15.482Z,0.40
2019-01-29T00:47:43.999Z,0.37
2019-01-29T00:50:14.473Z,0.38
2019-01-29T00:52:43.021Z,0.38
2019-01-29T00:55:14.422Z,0.38
2019-01-29T00:57:43.214Z,0.38
2019-01-29T01:00:23.389Z,0.37
2019-01-29T01:02:51.916Z,0.39
2019-01-29T01:05:21.994Z,0.31
2019-01-29T01:07:50.497Z,0.31
2019-01-29T01:10:21.211Z,0.33
2019-01-29T01:12:50.275Z,0.32
2019-01-29T01:15:18.940Z,0.29
2019-01-29T01:17:47.368Z,0.30
2019-01-29T01:20:17.842Z,0.30
2019-01-29T01:22:51.068Z,0.31
2019-01-29T01:25:17.644Z,0.29
2019-01-29T01:27:46.039Z,0.31
2019-01-29T01:30:17.184Z,0.30
2019-01-29T01:32:46.151Z,0.33
2019-01-29T01:35:15.481Z,0.31
2019-01-29T01:37:43.941Z,0.34
2019-01-29T01:40:15.603Z,0.37
2019-01-29T01:42:44.050Z,0.38
2019-01-29T01:45:12.793Z,0.39
2019-01-29T01:47:41.233Z,0.40
2019-01-29T01:50:14.796Z,0.40
2019-01-29T01:52:43.327Z,0.42
2019-01-29T01:55:17.205Z,0.43
2019-01-29T01:57:45.619Z,0.44
2019-01-29T02:00:16.993Z,0.46
2019-01-29T02:02:45.573Z,0.48
2019-01-29T02:05:14.106Z,0.51
2019-01-29T02:07:42.595Z,0.49
2019-01-29T02:10:14.115Z,0.49
2019-01-29T02:12:42.523Z,0.49
2019-01-29T02:15:12.010Z,0.54
2019-01-29T02:17:40.463Z,0.54
2019-01-29T02:20:11.770Z,0.57
2019-01-29T02:22:40.290Z,0.57
2019-01-29T02:25:08.857Z,0.57
2019-01-29T02:27:37.273Z,0.57
2019-01-29T02:30:11.481Z,0.58
2019-01-29T02:32:39.975Z,0.59
2019-01-29T02:35:08.555Z,0.61
2019-01-29T02:37:36.990Z,0.66
2019-01-29T02:40:26.510Z,0.68
2019-01-29T02:42:54.925Z,0.69
2019-01-29T02:45:24.064Z,0.69
2019-01-29T02:47:52.494Z,0.71
2019-01-29T02:50:21.126Z,0.75
2019-01-29T02:52:49.540Z,0.80
2019-01-29T02:55:18.038Z,0.84
2019-01-29T02:57:46.503Z,0.85
2019-01-29T03:00:17.868Z,0.88
2019-01-29T03:02:46.294Z,0.92
2019-01-29T03:05:16.378Z,0.94
2019-01-29T03:07:45.046Z,0.94
2019-01-29T03:10:19.667Z,0.96
2019-01-29T03:12:49.418Z,0.99
2019-01-29T03:15:20.691Z,1.00
2019-01-29T03:17:49.214Z,1.01
2019-01-29T03:20:18.070Z,1.00
2019-01-29T03:22:46.502Z,0.92
2019-01-29T03:25:14.998Z,0.96
2019-01-29T03:27:43.425Z,0.88
2019-01-29T03:30:22.333Z,0.87
2019-01-29T03:32:50.743Z,0.89
2019-01-29T03:35:19.318Z,0.91
2019-01-29T03:37:47.841Z,0.96
2019-01-29T03:40:19.364Z,0.98
2019-01-29T03:42:47.808Z,1.00
2019-01-29T03:45:17.057Z,1.00
2019-01-29T03:47:45.635Z,1.04
2019-01-29T03:50:19.882Z,1.04
2019-01-29T03:52:48.361Z,1.05
2019-01-29T03:55:16.907Z,1.06
2019-01-29T03:57:45.375Z,1.07
2019-01-29T04:00:16.842Z,1.09
2019-01-29T04:02:45.460Z,1.08
2019-01-29T04:05:14.026Z,1.09
2019-01-29T04:07:42.439Z,1.09
2019-01-29T04:10:16.297Z,1.11
2019-01-29T04:12:46.185Z,1.10
2019-01-29T04:15:17.177Z,1.12
2019-01-29T04:17:46.371Z,1.13
2019-01-29T04:20:21.155Z,1.18
2019-01-29T04:22:49.604Z,1.15
2019-01-29T04:25:18.186Z,1.15
2019-01-29T04:27:46.710Z,1.15
2019-01-29T04:30:17.643Z,1.16
2019-01-29T04:32:46.128Z,1.18
2019-01-29T04:35:14.678Z,1.14
2019-01-29T04:37:43.136Z,1.16
2019-01-29T04:40:16.885Z,1.14
2019-01-29T04:42:45.431Z,1.11
2019-01-29T04:45:15.785Z,1.13
2019-01-29T04:47:44.290Z,1.15
2019-01-29T04:50:20.841Z,1.16
2019-01-29T04:52:49.314Z,1.16
2019-01-29T04:55:19.343Z,1.15
2019-01-29T04:57:47.892Z,1.16
2019-01-29T05:00:21.846Z,1.14
2019-01-29T05:02:50.427Z,1.14
2019-01-29T05:05:20.100Z,1.10
2019-01-29T05:07:48.596Z,1.09
2019-01-29T05:10:19.323Z,1.10
2019-01-29T05:12:47.718Z,1.09
2019-01-29T05:15:18.560Z,1.08
2019-01-29T05:17:46.944Z,1.09
2019-01-29T05:20:17.741Z,1.08
2019-01-29T05:22:46.271Z,1.06
2019-01-29T05:25:15.364Z,1.04
2019-01-29T05:27:43.819Z,1.04
2019-01-29T05:30:15.186Z,1.04
2019-01-29T05:32:43.605Z,1.07
2019-01-29T05:35:12.222Z,1.07
2019-01-29T05:37:40.708Z,1.09
2019-01-29T05:40:12.668Z,1.07
2019-01-29T05:42:41.177Z,1.06
2019-01-29T05:45:15.413Z,1.06
2019-01-29T05:47:43.843Z,1.05
2019-01-29T05:50:14.823Z,1.05
2019-01-29T05:52:43.387Z,1.08
2019-01-29T05:55:13.759Z,1.02
2019-01-29T05:57:42.360Z,1.03
2019-01-29T06:00:14.050Z,0.99
2019-01-29T06:02:42.472Z,0.95
2019-01-29T06:05:11.860Z,0.97
2019-01-29T06:07:40.313Z,1.01
2019-01-29T06:10:12.069Z,1.02
2019-01-29T06:12:40.486Z,1.06
2019-01-29T06:15:11.941Z,1.01
2019-01-29T06:17:40.357Z,1.01
2019-01-29T06:20:11.825Z,1.00
2019-01-29T06:22:40.270Z,0.98
2019-01-29T06:25:08.850Z,0.92
2019-01-29T06:27:37.307Z,0.96
2019-01-29T06:30:11.489Z,0.92
2019-01-29T06:32:39.890Z,0.88
2019-01-29T06:35:13.596Z,0.88
2019-01-29T06:37:42.419Z,0.80
2019-01-29T06:40:14.081Z,0.82
2019-01-29T06:42:42.574Z,0.79
2019-01-29T06:45:14.272Z,0.73
2019-01-29T06:47:42.828Z,0.69
2019-01-29T06:50:14.307Z,0.69
2019-01-29T06:52:42.757Z,0.69
2019-01-29T06:55:14.360Z,0.73
2019-01-29T06:57:42.787Z,0.68
2019-01-29T07:00:14.358Z,0.69
2019-01-29T07:02:43.639Z,0.72
2019-01-29T07:05:12.590Z,0.74
2019-01-29T07:07:41.034Z,0.77
2019-01-29T07:10:12.920Z,0.81
2019-01-29T07:12:41.347Z,0.83
2019-01-29T07:15:14.923Z,0.85
2019-01-29T07:17:45.231Z,0.84
2019-01-29T07:20:14.142Z,0.84
2019-01-29T07:22:42.606Z,0.87
2019-01-29T07:25:12.468Z,0.90
2019-01-29T07:27:40.951Z,0.93
2019-01-29T07:30:15.221Z,0.97
2019-01-29T07:32:43.633Z,0.97
2019-01-29T07:35:12.208Z,0.99
2019-01-29T07:37:40.666Z,1.03
2019-01-29T07:40:10.799Z,1.02
2019-01-29T07:42:39.333Z,1.05
2019-01-29T07:45:10.973Z,1.06
2019-01-29T07:47:39.445Z,1.05
2019-01-29T07:50:10.130Z,1.02
2019-01-29T07:52:38.704Z,1.10
2019-01-29T07:55:10.573Z,1.05
2019-01-29T07:57:39.017Z,1.06
2019-01-29T08:00:15.670Z,1.07
2019-01-29T08:02:44.115Z,1.09
2019-01-29T08:05:13.167Z,1.13
2019-01-29T08:07:41.648Z,1.39
2019-01-29T08:10:13.484Z,1.69
2019-01-29T08:12:41.914Z,1.87
2019-01-29T08:15:13.357Z,2.09
2019-01-29T08:17:41.872Z,2.24
2019-01-29T08:20:13.218Z,2.25
2019-01-29T08:22:41.762Z,2.34
2019-01-29T08:25:11.412Z,2.30
2019-01-29T08:27:39.967Z,2.21
2019-01-29T08:30:16.559Z,2.14
2019-01-29T08:32:44.984Z,2.19
2019-01-29T08:35:17.853Z,2.21
2019-01-29T08:37:46.402Z,2.13
2019-01-29T08:40:16.455Z,2.19
2019-01-29T08:42:45.018Z,2.11
2019-01-29T08:45:15.987Z,2.19
2019-01-29T08:47:44.468Z,2.29
2019-01-29T08:50:15.956Z,2.37
2019-01-29T08:52:44.375Z,2.44
2019-01-29T08:55:12.887Z,2.58
2019-01-29T08:57:41.344Z,3.03
2019-01-29T09:00:15.166Z,3.25
2019-01-29T09:02:43.731Z,3.74
2019-01-29T09:05:12.588Z,3.64
2019-01-29T09:07:42.670Z,4.26
2019-01-29T09:10:17.314Z,4.25
2019-01-29T09:12:45.794Z,4.49
2019-01-29T09:15:19.274Z,4.60
2019-01-29T09:17:47.777Z,5.04
2019-01-29T09:20:18.456Z,5.37
2019-01-29T09:22:46.945Z,5.13
2019-01-29T09:25:21.021Z,5.03
2019-01-29T09:27:46.141Z,4.97
2019-01-29T09:30:17.366Z,4.94
2019-01-29T09:32:46.077Z,5.46
2019-01-29T09:35:14.841Z,5.23
2019-01-29T09:37:43.250Z,4.98
2019-01-29T09:40:23.480Z,4.63
2019-01-29T09:42:54.789Z,4.35
2019-01-29T09:45:24.053Z,4.00
2019-01-29T09:47:52.553Z,3.81
2019-01-29T09:50:22.995Z,3.91
2019-01-29T09:52:52.674Z,3.59
2019-01-29T09:55:28.864Z,3.73
2019-01-29T09:57:53.037Z,3.45
2019-01-29T10:00:33.462Z,3.50
2019-01-29T10:03:01.944Z,3.34
2019-01-29T10:05:30.388Z,3.47
2019-01-29T10:07:59.477Z,3.33
2019-01-29T10:10:27.937Z,3.37
2019-01-29T10:12:56.566Z,3.20
2019-01-29T10:15:27.767Z,3.14
2019-01-29T10:17:56.327Z,3.04
2019-01-29T10:20:24.987Z,3.05
2019-01-29T10:22:53.348Z,3.03
2019-01-29T10:25:21.870Z,2.96
2019-01-29T10:27:50.290Z,3.01
2019-01-29T10:30:21.659Z,3.01
2019-01-29T10:32:50.229Z,3.00
2019-01-29T10:35:24.290Z,2.93
2019-01-29T10:37:52.792Z,2.96
2019-01-29T10:40:26.603Z,3.06
2019-01-29T10:42:56.763Z,2.90
2019-01-29T10:45:27.922Z,3.00
2019-01-29T10:47:56.344Z,2.97
2019-01-29T10:50:29.921Z,3.00
2019-01-29T10:52:58.896Z,3.02
2019-01-29T10:55:27.454Z,3.06
2019-01-29T10:57:55.963Z,3.11
2019-01-29T11:00:37.151Z,2.96
2019-01-29T11:03:06.119Z,3.09
2019-01-29T11:05:34.747Z,3.09
2019-01-29T11:08:03.515Z,3.00
2019-01-29T11:10:31.987Z,3.12
2019-01-29T11:13:00.521Z,3.05
2019-01-29T11:15:37.036Z,3.09
2019-01-29T11:18:08.652Z,3.12
2019-01-29T11:20:37.221Z,3.14
2019-01-29T11:23:05.835Z,3.02
2019-01-29T11:25:34.424Z,3.07
2019-01-29T11:28:02.900Z,3.02
2019-01-29T11:30:33.137Z,3.09
2019-01-29T11:33:01.644Z,3.14
2019-01-29T11:35:30.205Z,3.09
2019-01-29T11:37:58.786Z,3.16
2019-01-29T11:40:32.390Z,3.21
2019-01-29T11:43:01.158Z,3.15
2019-01-29T11:45:38.560Z,3.21
2019-01-29T11:48:07.135Z,3.25
2019-01-29T11:50:35.563Z,3.34
2019-01-29T11:53:04.586Z,3.37
2019-01-29T11:55:33.094Z,3.39
2019-01-29T11:58:01.501Z,3.52
2019-01-29T12:00:43.355Z,3.56
2019-01-29T12:03:11.772Z,3.55
2019-01-29T12:05:40.265Z,3.59
2019-01-29T12:08:08.795Z,3.64
2019-01-29T12:10:37.277Z,3.68
2019-01-29T12:13:06.664Z,3.73
2019-01-29T12:15:35.164Z,3.63
2019-01-29T12:18:04.363Z,3.63
2019-01-29T12:20:32.782Z,3.69
2019-01-29T12:23:01.292Z,3.50
2019-01-29T12:25:29.722Z,3.65
2019-01-29T12:27:58.191Z,3.58
2019-01-29T12:30:28.653Z,3.59
2019-01-29T12:32:58.648Z,3.63
2019-01-29T12:35:27.086Z,3.67
2019-01-29T12:37:55.563Z,3.67
2019-01-29T12:40:24.090Z,3.71
2019-01-29T12:42:52.501Z,3.67
2019-01-29T12:45:21.373Z,3.71
2019-01-29T12:47:50.178Z,3.60
2019-01-29T12:50:27.032Z,3.53
2019-01-29T12:53:08.843Z,3.57
2019-01-29T12:55:37.789Z,3.51
2019-01-29T12:58:07.265Z,3.53
2019-01-29T13:00:37.799Z,3.48
2019-01-29T13:03:06.382Z,3.50
2019-01-29T13:05:34.904Z,3.39
2019-01-29T13:08:03.513Z,3.35
2019-01-29T13:10:31.970Z,3.38
2019-01-29T13:13:00.450Z,3.32
2019-01-29T13:15:35.774Z,3.33
2019-01-29T13:18:05.059Z,3.33
2019-01-29T13:20:33.515Z,3.40
2019-01-29T13:23:02.017Z,3.38
2019-01-29T13:25:30.586Z,3.36
2019-01-29T13:27:59.059Z,3.25
2019-01-29T13:30:35.887Z,3.37
2019-01-29T13:33:07.083Z,3.31
2019-01-29T13:35:36.949Z,3.34
2019-01-29T13:38:06.814Z,3.37
2019-01-29T13:40:35.758Z,3.41
2019-01-29T13:43:04.846Z,3.37
2019-01-29T13:45:33.351Z,3.37
2019-01-29T13:48:01.809Z,3.30
2019-01-29T13:50:39.529Z,3.38
2019-01-29T13:53:08.052Z,3.37
2019-01-29T13:55:36.693Z,3.37
2019-01-29T13:58:07.362Z,3.33
2019-01-29T14:00:38.327Z,3.28
2019-01-29T14:03:09.250Z,3.24
2019-01-29T14:05:37.839Z,3.28
2019-01-29T14:08:08.005Z,3.24
2019-01-29T14:10:36.537Z,3.21
2019-01-29T14:13:05.078Z,3.26
2019-01-29T14:15:41.033Z,3.28
2019-01-29T14:18:10.719Z,3.27
2019-01-29T14:20:39.134Z,3.31
2019-01-29T14:23:09.353Z,3.29
2019-01-29T14:25:38.188Z,3.38
2019-01-29T14:28:06.793Z,3.37
2019-01-29T14:30:35.318Z,3.40
2019-01-29T14:33:04.350Z,3.39
2019-01-29T14:35:32.785Z,3.40
2019-01-29T14:38:07.190Z,3.44
2019-01-29T14:40:35.701Z,3.44
2019-01-29T14:43:05.602Z,3.44
2019-01-29T14:45:34.484Z,3.44
2019-01-29T14:48:02.970Z,3.45
2019-01-29T14:50:32.045Z,3.37
2019-01-29T14:53:00.547Z,3.32
2019-01-29T14:55:29.029Z,3.36
2019-01-29T14:57:57.445Z,3.34
2019-01-29T15:00:34.141Z,3.37
2019-01-29T15:03:02.577Z,3.34
2019-01-29T15:05:31.002Z,3.27
2019-01-29T15:07:59.455Z,3.26
2019-01-29T15:10:34.165Z,3.24
2019-01-29T15:13:02.655Z,3.26
2019-01-29T15:15:35.769Z,3.26
2019-01-29T15:18:06.996Z,3.24
2019-01-29T15:20:35.435Z,3.22
2019-01-29T15:23:04.718Z,3.12
2019-01-29T15:25:33.165Z,3.17
2019-01-29T15:28:02.354Z,3.14
2019-01-29T15:30:33.785Z,3.18
2019-01-29T15:33:02.244Z,3.16
2019-01-29T15:35:30.662Z,3.14
2019-01-29T15:37:59.140Z,3.17
2019-01-29T15:40:27.718Z,3.16
2019-01-29T15:42:56.277Z,3.19
2019-01-29T15:45:31.243Z,3.17
2019-01-29T15:47:59.781Z,3.12
2019-01-29T15:50:33.017Z,3.12
2019-01-29T15:53:01.586Z,3.09
2019-01-29T15:55:30.233Z,3.07
2019-01-29T15:57:58.709Z,3.04
2019-01-29T16:00:35.142Z,3.05
2019-01-29T16:03:04.113Z,3.05
2019-01-29T16:05:35.156Z,3.02
2019-01-29T16:08:05.433Z,3.01
2019-01-29T16:10:40.061Z,2.99
2019-01-29T16:13:08.703Z,2.94
2019-01-29T16:15:37.724Z,2.89
2019-01-29T16:18:07.336Z,2.85
2019-01-29T16:20:35.767Z,2.81
2019-01-29T16:23:04.635Z,2.79
2019-01-29T16:25:34.921Z,2.70
2019-01-29T16:28:03.373Z,2.66
2019-01-29T16:30:36.831Z,2.70
2019-01-29T16:33:06.019Z,2.70
2019-01-29T16:35:40.076Z,2.62
2019-01-29T16:38:09.931Z,2.65
2019-01-29T16:40:40.830Z,2.70
2019-01-29T16:43:09.336Z,2.69
2019-01-29T16:45:38.815Z,2.65
2019-01-29T16:48:09.090Z,2.64
2019-01-29T16:50:37.663Z,2.61
2019-01-29T16:53:08.276Z,2.64
2019-01-29T16:55:36.893Z,2.63
2019-01-29T16:58:06.886Z,2.63
2019-01-29T17:00:38.027Z,2.58
2019-01-29T17:03:06.574Z,2.57
2019-01-29T17:05:35.035Z,2.59
2019-01-29T17:08:03.625Z,2.57
2019-01-29T17:10:33.680Z,2.56
2019-01-29T17:13:02.207Z,2.54
2019-01-29T17:15:35.671Z,2.49
2019-01-29T17:18:05.516Z,2.49
2019-01-29T17:20:37.009Z,2.47
2019-01-29T17:23:07.253Z,2.48
2019-01-29T17:25:36.264Z,2.48
2019-01-29T17:28:05.106Z,2.45
2019-01-29T17:30:36.659Z,2.47
2019-01-29T17:33:06.327Z,2.52
2019-01-29T17:35:35.893Z,2.48
2019-01-29T17:38:04.559Z,2.45
2019-01-29T17:40:32.999Z,2.40
2019-01-29T17:43:01.480Z,2.38
2019-01-29T17:45:35.938Z,2.38
2019-01-29T17:48:04.940Z,2.39
2019-01-29T17:50:36.300Z,2.40
2019-01-29T17:53:05.195Z,2.29
2019-01-29T17:55:35.250Z,2.31
2019-01-29T17:58:04.823Z,2.24
2019-01-29T18:00:35.259Z,2.27
2019-01-29T18:03:05.288Z,2.24
2019-01-29T18:05:34.932Z,2.22
2019-01-29T18:08:03.869Z,2.12
2019-01-29T18:10:32.277Z,2.07
2019-01-29T18:13:00.715Z,2.07
2019-01-29T18:15:30.920Z,1.98
2019-01-29T18:17:59.456Z,1.95
2019-01-29T18:20:27.889Z,1.92
2019-01-29T18:22:56.319Z,1.86
2019-01-29T18:25:24.892Z,1.80
2019-01-29T18:28:00.891Z,1.71
2019-01-29T18:30:29.418Z,1.68
2019-01-29T18:32:57.852Z,1.56
2019-01-29T18:35:26.347Z,1.55
2019-01-29T18:38:00.889Z,1.57
2019-01-29T18:40:41.372Z,1.47
2019-01-29T18:43:09.775Z,1.49
2019-01-29T18:45:38.211Z,1.48
2019-01-29T18:48:06.720Z,1.44
2019-01-29T18:50:35.148Z,1.41
2019-01-29T18:53:03.645Z,1.45
2019-01-29T18:55:32.097Z,1.39
2019-01-29T18:58:00.514Z,1.34
2019-01-29T19:00:29.032Z,1.31
2019-01-29T19:02:57.484Z,1.21
2019-01-29T19:05:27.262Z,1.18
2019-01-29T19:07:55.765Z,1.11
2019-01-29T19:10:24.433Z,1.11
2019-01-29T19:12:53.361Z,1.06
2019-01-29T19:15:23.953Z,1.03
2019-01-29T19:17:52.432Z,1.06
2019-01-29T19:20:26.131Z,1.00
2019-01-29T19:22:54.308Z,0.95
2019-01-29T19:25:22.749Z,0.88
2019-01-29T19:27:51.321Z,0.94
2019-01-29T19:30:25.392Z,0.89
2019-01-29T19:32:53.856Z,0.82
2019-01-29T19:35:22.484Z,0.77
2019-01-29T19:37:50.983Z,0.77
2019-01-29T19:40:19.977Z,0.79
2019-01-29T19:42:48.381Z,0.74
2019-01-29T19:45:25.489Z,0.72
2019-01-29T19:47:54.646Z,0.76
2019-01-29T19:50:25.515Z,0.79
2019-01-29T19:52:54.409Z,0.78
2019-01-29T19:55:23.799Z,0.75
2019-01-29T19:57:52.260Z,0.78
2019-01-29T20:00:26.118Z,0.83
2019-01-29T20:02:56.965Z,0.80
2019-01-29T20:05:24.826Z,0.77
2019-01-29T20:07:53.257Z,0.75
2019-01-29T20:10:22.648Z,0.74
2019-01-29T20:12:52.215Z,0.70
2019-01-29T20:15:25.313Z,0.71
2019-01-29T20:17:56.099Z,0.70
2019-01-29T20:20:30.444Z,0.65
2019-01-29T20:23:07.703Z,0.64
2019-01-29T20:25:29.677Z,0.62
2019-01-29T20:27:58.373Z,0.65
2019-01-29T20:30:29.960Z,0.62
2019-01-29T20:32:58.470Z,0.64
2019-01-29T20:35:26.983Z,0.59
2019-01-29T20:37:55.801Z,0.64
2019-01-29T20:40:25.155Z,0.58
2019-01-29T20:42:53.904Z,0.52
2019-01-29T20:45:22.449Z,0.58
2019-01-29T20:47:52.702Z,0.53
2019-01-29T20:50:24.341Z,0.57
2019-01-29T20:52:52.995Z,0.54
2019-01-29T20:55:21.454Z,0.54
2019-01-29T20:57:49.962Z,0.49
2019-01-29T21:00:24.908Z,0.45
2019-01-29T21:02:54.256Z,0.45
2019-01-29T21:05:22.730Z,0.39
2019-01-29T21:07:51.226Z,0.36
2019-01-29T21:10:21.909Z,0.40
2019-01-29T21:12:50.365Z,0.38
2019-01-29T21:15:24.132Z,0.34
2019-01-29T21:17:52.729Z,0.36
2019-01-29T21:20:24.204Z,0.33
2019-01-29T21:22:52.704Z,0.32
2019-01-29T21:25:21.833Z,0.34
2019-01-29T21:27:50.274Z,0.32
2019-01-29T21:30:21.689Z,0.40
2019-01-29T21:32:50.166Z,0.41
2019-01-29T21:35:18.750Z,0.38
2019-01-29T21:37:47.170Z,0.31
2019-01-29T21:40:17.141Z,0.33
2019-01-29T21:42:45.568Z,0.34
2019-01-29T21:45:19.344Z,0.33
2019-01-29T21:47:48.842Z,0.29
2019-01-29T21:50:19.947Z,0.23
2019-01-29T21:52:48.576Z,0.20
2019-01-29T21:55:17.652Z,0.18
2019-01-29T21:57:46.405Z,0.15
2019-01-29T22:00:33.107Z,0.14
2019-01-29T22:03:01.849Z,0.19
2019-01-29T22:05:30.398Z,0.15
2019-01-29T22:07:58.907Z,0.14
2019-01-29T22:10:27.972Z,0.17
2019-01-29T22:12:56.515Z,0.16
2019-01-29T22:15:26.215Z,0.19
2019-01-29T22:17:54.752Z,0.15
2019-01-29T22:20:24.680Z,0.19
2019-01-29T22:22:53.214Z,0.10
2019-01-29T22:25:25.773Z,0.10
2019-01-29T22:27:54.181Z,0.01
2019-01-29T22:30:34.607Z,0.09
2019-01-29T22:33:03.374Z,0.04
2019-01-29T22:35:31.882Z,0.07
2019-01-29T22:38:00.464Z,0.09
2019-01-29T22:40:30.804Z,0.06
2019-01-29T22:43:01.306Z,0.03
2019-01-29T22:45:30.150Z,0.03
2019-01-29T22:47:58.712Z,0.03
2019-01-29T22:50:32.593Z,0.04
2019-01-29T22:53:01.102Z,-0.01
2019-01-29T22:55:29.801Z,0.01
2019-01-29T22:57:58.341Z,-0.02
2019-01-29T23:00:34.405Z,-0.04
2019-01-29T23:03:03.183Z,-0.08
2019-01-29T23:05:34.934Z,0.00
2019-01-29T23:08:03.401Z,-0.02
2019-01-29T23:10:31.798Z,-0.06
2019-01-29T23:13:00.240Z,-0.05
2019-01-29T23:15:28.783Z,-0.09
2019-01-29T23:17:57.199Z,0.00
2019-01-29T23:20:25.777Z,0.02
2019-01-29T23:22:54.238Z,-0.04
2019-01-29T23:25:22.758Z,-0.09
2019-01-29T23:27:51.176Z,-0.07
2019-01-29T23:30:21.467Z,-0.07
2019-01-29T23:32:49.893Z,-0.07
2019-01-29T23:35:18.350Z,-0.07
2019-01-29T23:37:46.793Z,-0.08
2019-01-29T23:40:19.298Z,-0.05
2019-01-29T23:42:47.747Z,-0.04
2019-01-29T23:45:16.899Z,-0.07
2019-01-29T23:47:45.334Z,-0.04
2019-01-29T23:50:16.166Z,-0.02
2019-01-29T23:52:44.606Z,-0.06
2019-01-29T23:55:13.213Z,-0.08
2019-01-29T23:57:41.639Z,-0.08
